createdAt,value
2022-10-04T00:01:55.144Z,9.57
2022-10-04T00:04:51.145Z,12.02
2022-10-04T00:07:26.525Z,8.88
2022-10-04T00:10:01.867Z,8.70
2022-10-04T00:12:53.466Z,9.50
2022-10-04T00:15:27.809Z,11.30
2022-10-04T00:18:16.785Z,9.50
2022-10-04T00:20:50.230Z,13.25
2022-10-04T00:23:23.361Z,8.05
2022-10-04T00:28:20.807Z,10.25
2022-10-04T00:31:12.537Z,9.82
2022-10-04T00:33:49.015Z,12.15
2022-10-04T00:36:25.060Z,10.25
2022-10-04T00:39:04.479Z,8.70
2022-10-04T00:41:49.637Z,11.43
2022-10-04T00:44:41.153Z,12.25
2022-10-04T00:47:35.939Z,12.10
2022-10-04T00:50:29.262Z,12.07
2022-10-04T00:52:59.310Z,12.40
2022-10-04T00:55:31.815Z,11.15
2022-10-04T00:58:03.087Z,10.88
2022-10-04T01:00:31.926Z,11.23
2022-10-04T01:03:06.291Z,10.70
2022-10-04T01:05:36.152Z,14.27
2022-10-04T01:08:14.678Z,10.63
2022-10-04T01:10:49.275Z,9.23
2022-10-04T01:13:27.733Z,7.68
2022-10-04T01:16:06.530Z,11.48
2022-10-04T01:18:35.474Z,11.35
2022-10-04T01:21:21.606Z,9.23
2022-10-04T01:24:21.157Z,7.93
2022-10-04T01:26:48.563Z,6.75
2022-10-04T01:29:24.876Z,12.23
2022-10-04T01:31:54.636Z,12.43
2022-10-04T01:34:26.630Z,8.15
2022-10-04T01:36:57.093Z,11.80
2022-10-04T01:39:25.839Z,8.35
2022-10-04T01:42:20.900Z,8.55
2022-10-04T01:45:11.903Z,11.23
2022-10-04T01:47:55.948Z,9.18
2022-10-04T01:50:45.254Z,16.50
2022-10-04T01:53:21.533Z,9.23
2022-10-04T01:55:55.702Z,7.50
2022-10-04T01:58:29.038Z,10.30
2022-10-04T02:03:38.279Z,10.73
2022-10-04T02:06:10.698Z,10.30
2022-10-04T02:08:45.454Z,8.57
2022-10-04T02:11:20.085Z,10.48
2022-10-04T02:13:50.397Z,9.60
2022-10-04T02:16:19.964Z,11.25
2022-10-04T02:18:49.513Z,8.82
2022-10-04T02:21:18.893Z,9.50
2022-10-04T02:23:51.375Z,10.38
2022-10-04T02:26:18.758Z,10.88
2022-10-04T02:28:45.860Z,9.82
2022-10-04T02:31:13.365Z,9.27
2022-10-04T02:33:49.412Z,8.20
2022-10-04T02:36:18.033Z,7.85
2022-10-04T02:39:08.238Z,11.05
2022-10-04T02:41:56.097Z,7.95
2022-10-04T02:44:41.100Z,9.52
2022-10-04T02:47:24.815Z,10.43
2022-10-04T02:50:24.372Z,9.07
2022-10-04T02:52:58.542Z,9.27
2022-10-04T02:55:29.458Z,9.98
2022-10-04T02:58:00.542Z,11.35
2022-10-04T03:00:32.438Z,7.50
2022-10-04T03:03:25.720Z,11.68
2022-10-04T03:06:18.861Z,8.13
2022-10-04T03:08:51.403Z,9.68
2022-10-04T03:11:21.516Z,10.50
2022-10-04T03:13:54.850Z,12.77
2022-10-04T03:16:22.817Z,10.05
2022-10-04T03:18:51.778Z,10.73
2022-10-04T03:21:21.658Z,7.53
2022-10-04T03:23:50.803Z,9.15
2022-10-04T03:26:30.018Z,8.00
2022-10-04T03:28:58.720Z,6.72
2022-10-04T03:31:28.330Z,10.35
2022-10-04T03:33:57.286Z,10.52
2022-10-04T03:36:26.779Z,10.90
2022-10-04T03:38:56.030Z,7.63
2022-10-04T03:41:25.951Z,13.13
2022-10-04T03:43:54.922Z,11.50
2022-10-04T03:46:23.635Z,10.15
2022-10-04T03:48:53.380Z,11.20
2022-10-04T03:51:25.955Z,9.57
2022-10-04T03:53:59.548Z,9.93
2022-10-04T03:56:30.910Z,7.97
2022-10-04T03:59:02.366Z,7.72
2022-10-04T04:01:42.901Z,10.15
2022-10-04T04:04:32.775Z,7.95
2022-10-04T04:07:20.450Z,8.57
2022-10-04T04:10:14.476Z,10.02
2022-10-04T04:12:49.556Z,9.77
2022-10-04T04:15:17.417Z,10.07
2022-10-04T04:17:47.262Z,10.55
2022-10-04T04:20:22.561Z,10.80
2022-10-04T04:23:05.142Z,8.30
2022-10-04T04:25:34.979Z,10.35
2022-10-04T04:28:23.505Z,11.82
2022-10-04T04:30:54.900Z,7.22
2022-10-04T04:33:41.012Z,11.07
2022-10-04T04:36:12.588Z,9.38
2022-10-04T04:38:39.941Z,10.02
2022-10-04T04:41:10.599Z,9.52
2022-10-04T04:43:45.456Z,9.80
2022-10-04T04:46:27.027Z,9.98
2022-10-04T04:49:02.178Z,10.65
2022-10-04T04:51:33.344Z,13.98
2022-10-04T04:54:03.716Z,12.65
2022-10-04T04:56:31.682Z,10.23
2022-10-04T04:59:06.414Z,9.48
2022-10-04T05:01:43.665Z,8.73
2022-10-04T05:04:10.997Z,9.43
2022-10-04T05:06:44.462Z,9.68
2022-10-04T05:09:32.476Z,10.10
2022-10-04T05:12:25.622Z,10.68
2022-10-04T05:14:54.502Z,11.63
2022-10-04T05:17:27.752Z,11.07
2022-10-04T05:19:59.254Z,10.73
2022-10-04T05:22:28.652Z,10.20
2022-10-04T05:25:07.862Z,9.40
2022-10-04T05:27:47.189Z,10.77
2022-10-04T05:30:20.292Z,9.82
2022-10-04T05:32:50.552Z,11.75
2022-10-04T05:35:20.219Z,9.40
2022-10-04T05:38:09.132Z,10.30
2022-10-04T05:40:58.477Z,13.10
2022-10-04T05:43:31.757Z,15.48
2022-10-04T05:48:47.284Z,7.00
2022-10-04T05:51:28.176Z,14.60
2022-10-04T05:53:59.780Z,10.23
2022-10-04T05:56:39.380Z,13.15
2022-10-04T05:59:25.465Z,11.50
2022-10-04T06:02:27.754Z,10.95
2022-10-04T06:05:16.140Z,11.73
2022-10-04T06:07:58.444Z,9.77
2022-10-04T06:10:44.327Z,11.15
2022-10-04T06:13:20.823Z,9.45
2022-10-04T06:15:59.341Z,11.73
2022-10-04T06:18:42.134Z,7.68
2022-10-04T06:21:35.271Z,9.25
2022-10-04T06:24:11.456Z,10.55
2022-10-04T06:26:44.222Z,14.30
2022-10-04T06:29:17.124Z,10.05
2022-10-04T06:32:20.599Z,13.80
2022-10-04T06:35:06.831Z,10.60
2022-10-04T06:38:02.599Z,9.68
2022-10-04T06:40:39.770Z,11.05
2022-10-04T06:43:33.373Z,9.43
2022-10-04T06:46:34.436Z,11.63
2022-10-04T06:49:16.834Z,12.20
2022-10-04T06:51:56.326Z,7.75
2022-10-04T06:54:32.048Z,9.32
2022-10-04T06:57:17.446Z,10.50
2022-10-04T06:59:53.473Z,9.07
2022-10-04T07:02:29.053Z,12.68
2022-10-04T07:05:23.334Z,10.05
2022-10-04T07:07:57.346Z,12.82
2022-10-04T07:10:36.172Z,8.63
2022-10-04T07:13:09.696Z,7.18
2022-10-04T07:15:52.425Z,9.13
2022-10-04T07:18:44.776Z,7.35
2022-10-04T07:21:15.944Z,9.70
2022-10-04T07:23:49.427Z,8.68
2022-10-04T07:26:29.063Z,12.82
2022-10-04T07:29:02.967Z,7.95
2022-10-04T07:34:10.179Z,10.00
2022-10-04T07:36:50.962Z,11.15
2022-10-04T07:39:28.000Z,14.38
2022-10-04T07:42:28.265Z,13.55
2022-10-04T07:45:19.420Z,12.10
2022-10-04T07:47:46.732Z,7.38
2022-10-04T07:50:34.594Z,10.50
2022-10-04T07:53:09.785Z,7.13
2022-10-04T07:56:06.213Z,10.38
2022-10-04T07:59:03.873Z,10.25
2022-10-04T08:01:42.915Z,9.00
2022-10-04T08:04:31.495Z,9.32
2022-10-04T08:07:10.803Z,10.38
2022-10-04T08:10:05.819Z,9.05
2022-10-04T08:12:39.221Z,10.93
2022-10-04T08:15:35.154Z,9.30
2022-10-04T08:18:43.507Z,10.73
2022-10-04T08:21:17.277Z,9.43
2022-10-04T08:23:56.137Z,8.52
2022-10-04T08:26:29.315Z,7.63
2022-10-04T08:29:19.725Z,7.32
2022-10-04T08:32:01.834Z,7.57
2022-10-04T08:35:02.921Z,6.55
2022-10-04T08:37:44.307Z,9.07
2022-10-04T08:40:42.098Z,8.98
2022-10-04T08:43:39.243Z,7.30
2022-10-04T08:46:33.577Z,7.88
2022-10-04T08:49:15.702Z,9.98
2022-10-04T08:52:08.763Z,8.02
2022-10-04T08:54:45.108Z,6.50
2022-10-04T08:57:18.799Z,6.13
2022-10-04T09:00:13.099Z,6.45
2022-10-04T09:02:59.117Z,7.18
2022-10-04T09:05:56.230Z,7.28
2022-10-04T09:08:26.601Z,7.05
2022-10-04T09:11:28.715Z,7.50
2022-10-04T09:14:23.881Z,11.10
2022-10-04T09:17:38.481Z,7.43
2022-10-04T09:20:39.847Z,6.22
2022-10-04T09:23:31.738Z,5.88
2022-10-04T09:26:07.939Z,7.07
2022-10-04T09:28:59.142Z,4.75
2022-10-04T09:31:56.285Z,6.13
2022-10-04T09:35:14.191Z,9.30
2022-10-04T09:37:56.658Z,8.25
2022-10-04T09:40:57.296Z,8.75
2022-10-04T09:43:33.783Z,8.38
2022-10-04T09:46:14.862Z,10.27
2022-10-04T09:48:48.422Z,8.35
2022-10-04T09:51:21.422Z,7.78
2022-10-04T09:54:10.018Z,7.47
2022-10-04T09:57:06.606Z,6.90
2022-10-04T10:00:11.324Z,8.95
2022-10-04T10:03:15.972Z,8.32
2022-10-04T10:06:05.134Z,5.40
2022-10-04T10:08:57.710Z,6.13
2022-10-04T10:11:47.961Z,7.72
2022-10-04T10:14:45.846Z,5.88
2022-10-04T10:17:45.447Z,4.95
2022-10-04T10:20:32.944Z,8.98
2022-10-04T10:23:12.194Z,7.55
2022-10-04T10:26:03.667Z,5.10
2022-10-04T10:29:09.327Z,9.55
2022-10-04T10:31:54.455Z,3.03
2022-10-04T10:34:41.113Z,9.25
2022-10-04T10:37:32.896Z,6.68
2022-10-04T10:40:37.991Z,5.05
2022-10-04T10:43:08.338Z,5.85
2022-10-04T10:46:01.440Z,7.50
2022-10-04T10:49:07.071Z,5.32
2022-10-04T10:52:11.955Z,3.85
2022-10-04T10:54:45.344Z,5.07
2022-10-04T10:57:32.611Z,5.50
2022-10-04T11:00:13.767Z,4.85
2022-10-04T11:03:14.638Z,4.30
2022-10-04T11:06:11.144Z,4.50
2022-10-04T11:09:05.854Z,5.05
2022-10-04T11:12:10.574Z,4.63
2022-10-04T11:14:40.867Z,5.85
2022-10-04T11:17:28.794Z,4.03
2022-10-04T11:20:20.750Z,6.88
2022-10-04T11:22:56.647Z,5.38
2022-10-04T11:25:57.293Z,5.88
2022-10-04T11:28:48.220Z,11.63
2022-10-04T11:32:02.813Z,6.00
2022-10-04T11:34:54.718Z,7.65
2022-10-04T11:37:52.442Z,5.40
2022-10-04T11:40:28.664Z,4.50
2022-10-04T11:43:35.657Z,6.30
2022-10-04T11:46:10.895Z,7.88
2022-10-04T11:49:13.057Z,5.85
2022-10-04T11:52:09.121Z,4.78
2022-10-04T11:55:00.556Z,8.00
2022-10-04T11:57:50.195Z,6.40
2022-10-04T12:00:22.181Z,4.32
2022-10-04T12:03:11.685Z,4.95
2022-10-04T12:05:45.355Z,5.68
2022-10-04T12:11:20.040Z,7.15
2022-10-04T12:13:53.059Z,5.97
2022-10-04T12:16:32.551Z,5.38
2022-10-04T12:19:36.754Z,10.98
2022-10-04T12:22:27.563Z,7.35
2022-10-04T12:25:33.495Z,3.47
2022-10-04T12:28:21.672Z,8.30
2022-10-04T12:30:54.523Z,5.05
2022-10-04T12:36:13.809Z,8.32
2022-10-04T12:38:50.153Z,9.23
2022-10-04T12:41:26.093Z,8.88
2022-10-04T12:43:56.315Z,6.65
2022-10-04T12:46:43.509Z,8.52
2022-10-04T12:49:38.491Z,8.57
2022-10-04T12:52:08.556Z,8.18
2022-10-04T12:55:31.055Z,8.45
2022-10-04T12:58:07.544Z,4.95
2022-10-04T13:00:43.771Z,6.57
2022-10-04T13:03:37.383Z,5.15
2022-10-04T13:06:21.497Z,17.02
2022-10-04T13:09:04.747Z,8.15
2022-10-04T13:11:53.188Z,7.95
2022-10-04T13:14:41.792Z,6.05
2022-10-04T13:17:34.519Z,7.15
2022-10-04T13:20:40.244Z,6.97
2022-10-04T13:23:36.719Z,4.05
2022-10-04T13:26:41.051Z,8.93
2022-10-04T13:29:17.749Z,5.65
2022-10-04T13:32:11.867Z,5.68
2022-10-04T13:34:57.765Z,8.10
2022-10-04T13:37:43.357Z,6.28
2022-10-04T13:40:42.316Z,7.07
2022-10-04T13:43:34.640Z,4.85
2022-10-04T13:46:42.625Z,6.35
2022-10-04T13:49:47.295Z,5.47
2022-10-04T13:52:37.779Z,18.30
2022-10-04T13:55:04.991Z,9.88
2022-10-04T13:58:09.109Z,11.10
2022-10-04T14:01:11.239Z,5.22
2022-10-04T14:04:06.727Z,6.95
2022-10-04T14:07:02.877Z,8.35
2022-10-04T14:09:45.394Z,10.10
2022-10-04T14:12:31.089Z,7.13
2022-10-04T14:15:09.957Z,6.28
2022-10-04T14:17:56.088Z,8.23
2022-10-04T14:20:54.755Z,8.90
2022-10-04T14:23:53.706Z,8.70
2022-10-04T14:26:30.059Z,8.63
2022-10-04T14:29:03.130Z,6.70
2022-10-04T14:32:02.554Z,9.57
2022-10-04T14:34:49.087Z,9.27
2022-10-04T14:37:40.463Z,11.80
2022-10-04T14:40:26.512Z,8.73
2022-10-04T14:43:17.078Z,10.38
2022-10-04T14:46:07.314Z,10.00
2022-10-04T14:49:07.102Z,8.60
2022-10-04T14:51:53.057Z,8.52
2022-10-04T14:54:23.494Z,8.80
2022-10-04T14:57:12.176Z,12.68
2022-10-04T14:59:58.081Z,10.80
2022-10-04T15:02:28.561Z,9.43
2022-10-04T15:05:29.790Z,9.65
2022-10-04T15:08:22.761Z,6.35
2022-10-04T15:11:04.995Z,7.38
2022-10-04T15:13:55.150Z,9.02
2022-10-04T15:16:44.869Z,10.82
2022-10-04T15:19:21.694Z,9.10
2022-10-04T15:21:55.481Z,6.90
2022-10-04T15:24:28.139Z,9.10
2022-10-04T15:27:20.218Z,8.07
2022-10-04T15:30:00.895Z,12.27
2022-10-04T15:32:35.466Z,10.20
2022-10-04T15:35:21.386Z,15.50
2022-10-04T15:38:15.345Z,9.13
2022-10-04T15:41:01.012Z,18.02
2022-10-04T15:44:09.567Z,10.00
2022-10-04T15:47:05.097Z,24.67
2022-10-04T15:50:07.099Z,15.52
2022-10-04T15:53:14.981Z,8.68
2022-10-04T15:55:49.444Z,9.60
2022-10-04T15:58:34.866Z,9.32
2022-10-04T16:01:38.744Z,8.18
2022-10-04T16:04:34.861Z,10.40
2022-10-04T16:07:08.189Z,8.23
2022-10-04T16:10:07.250Z,9.82
2022-10-04T16:13:03.998Z,19.55
2022-10-04T16:15:38.498Z,31.00
2022-10-04T16:18:36.420Z,78.95
2022-10-04T16:21:31.194Z,39.45
2022-10-04T16:24:19.987Z,19.52
2022-10-04T16:26:47.745Z,14.73
2022-10-04T16:29:38.620Z,10.77
2022-10-04T16:32:20.567Z,11.48
2022-10-04T16:34:53.357Z,12.80
2022-10-04T16:37:38.570Z,21.55
2022-10-04T16:40:26.232Z,27.17
2022-10-04T16:43:09.396Z,24.77
2022-10-04T16:45:58.636Z,30.58
2022-10-04T16:48:34.753Z,26.83
2022-10-04T16:51:04.885Z,22.48
2022-10-04T16:53:43.940Z,26.77
2022-10-04T16:56:23.599Z,32.65
2022-10-04T16:59:01.654Z,34.25
2022-10-04T17:01:38.270Z,32.95
2022-10-04T17:04:28.140Z,33.83
2022-10-04T17:07:13.132Z,33.78
2022-10-04T17:10:01.359Z,34.97
2022-10-04T17:12:47.313Z,34.55
2022-10-04T17:15:41.497Z,33.53
2022-10-04T17:18:47.743Z,34.53
2022-10-04T17:21:29.725Z,35.45
2022-10-04T17:24:29.269Z,32.20
2022-10-04T17:27:05.821Z,30.95
2022-10-04T17:29:58.043Z,28.92
2022-10-04T17:32:46.794Z,37.05
2022-10-04T17:35:41.696Z,41.47
2022-10-04T17:38:17.217Z,40.05
2022-10-04T17:40:50.683Z,39.50
2022-10-04T17:43:27.019Z,42.45
2022-10-04T17:46:22.773Z,43.50
2022-10-04T17:49:10.768Z,54.47
2022-10-04T17:51:50.099Z,42.95
2022-10-04T17:54:21.761Z,40.58
2022-10-04T17:57:03.212Z,45.47
2022-10-04T17:59:40.799Z,48.25
2022-10-04T18:02:20.062Z,55.88
2022-10-04T18:05:00.628Z,49.72
2022-10-04T18:07:39.134Z,50.33
2022-10-04T18:10:35.657Z,52.92
2022-10-04T18:13:20.738Z,59.80
2022-10-04T18:16:05.853Z,56.30
2022-10-04T18:18:44.018Z,58.60
2022-10-04T18:21:23.148Z,58.47
2022-10-04T18:23:56.872Z,58.03
2022-10-04T18:26:34.063Z,63.20
2022-10-04T18:29:07.197Z,60.10
2022-10-04T18:31:46.848Z,63.87
2022-10-04T18:34:28.878Z,60.35
2022-10-04T18:37:28.468Z,61.90
2022-10-04T18:40:15.079Z,61.17
2022-10-04T18:42:50.007Z,65.97
2022-10-04T18:45:24.993Z,66.47
2022-10-04T18:47:54.203Z,67.32
2022-10-04T18:50:22.113Z,65.28
2022-10-04T18:53:35.227Z,75.32
2022-10-04T18:56:10.987Z,84.00
2022-10-04T18:59:14.715Z,60.30
2022-10-04T19:02:22.097Z,59.78
2022-10-04T19:05:18.995Z,65.75
2022-10-04T19:08:05.127Z,70.57
2022-10-04T19:10:42.778Z,81.60
2022-10-04T19:13:40.495Z,78.38
2022-10-04T19:16:32.550Z,84.05
2022-10-04T19:19:27.918Z,85.45
2022-10-04T19:21:55.062Z,84.43
2022-10-04T19:24:35.398Z,87.35
2022-10-04T19:27:14.290Z,92.38
2022-10-04T19:29:44.605Z,75.28
2022-10-04T19:32:38.184Z,68.22
2022-10-04T19:35:36.340Z,70.30
2022-10-04T19:38:25.062Z,69.85
2022-10-04T19:41:13.753Z,62.65
2022-10-04T19:43:59.585Z,67.28
2022-10-04T19:46:54.070Z,67.93
2022-10-04T19:49:44.471Z,85.28
2022-10-04T19:52:21.889Z,99.60
2022-10-04T19:54:56.991Z,78.53
2022-10-04T19:57:37.009Z,55.50
2022-10-04T20:00:11.520Z,61.63
2022-10-04T20:02:48.195Z,73.93
2022-10-04T20:05:23.200Z,63.13
2022-10-04T20:07:55.824Z,65.53
2022-10-04T20:10:42.205Z,64.00
2022-10-04T20:13:18.875Z,51.63
2022-10-04T20:15:47.362Z,59.42
2022-10-04T20:18:31.410Z,61.17
2022-10-04T20:20:58.544Z,59.85
2022-10-04T20:23:38.346Z,60.50
2022-10-04T20:26:10.813Z,57.38
2022-10-04T20:28:41.348Z,54.00
2022-10-04T20:31:26.129Z,51.83
2022-10-04T20:33:53.762Z,52.33
2022-10-04T20:36:30.194Z,52.75
2022-10-04T20:39:02.395Z,55.88
2022-10-04T20:41:29.395Z,52.70
2022-10-04T20:43:57.478Z,50.50
2022-10-04T20:46:27.035Z,52.67
2022-10-04T20:48:56.929Z,46.95
2022-10-04T20:51:26.003Z,58.65
2022-10-04T20:53:53.428Z,44.17
2022-10-04T20:56:22.530Z,32.75
2022-10-04T20:58:58.442Z,25.52
2022-10-04T21:01:34.189Z,25.60
2022-10-04T21:04:24.489Z,24.65
2022-10-04T21:06:52.381Z,33.28
2022-10-04T21:09:19.804Z,27.73
2022-10-04T21:11:49.873Z,28.63
2022-10-04T21:14:27.090Z,25.17
2022-10-04T21:17:02.356Z,37.80
2022-10-04T21:19:32.875Z,31.65
2022-10-04T21:22:02.769Z,24.88
2022-10-04T21:24:42.744Z,25.50
2022-10-04T21:27:39.082Z,23.58
2022-10-04T21:30:14.622Z,24.92
2022-10-04T21:32:44.302Z,27.10
2022-10-04T21:35:12.776Z,23.40
2022-10-04T21:37:39.832Z,22.63
2022-10-04T21:40:07.843Z,16.85
2022-10-04T21:42:35.355Z,19.92
2022-10-04T21:45:04.942Z,17.40
2022-10-04T21:47:32.434Z,16.40
2022-10-04T21:49:59.490Z,17.48
2022-10-04T21:52:26.542Z,18.45
2022-10-04T21:54:56.240Z,15.77
2022-10-04T21:57:23.342Z,14.68
2022-10-04T21:59:50.346Z,13.30
2022-10-04T22:02:17.786Z,15.65
2022-10-04T22:04:45.075Z,10.63
2022-10-04T22:07:12.077Z,12.20
2022-10-04T22:09:39.627Z,11.40
2022-10-04T22:12:06.664Z,10.90
2022-10-04T22:14:33.712Z,10.57
2022-10-04T22:17:03.456Z,10.15
2022-10-04T22:19:32.780Z,10.68
2022-10-04T22:21:59.898Z,11.68
2022-10-04T22:24:27.454Z,10.40
2022-10-04T22:26:54.484Z,9.77
2022-10-04T22:29:21.515Z,15.55
2022-10-04T22:31:52.916Z,13.05
2022-10-04T22:34:21.681Z,11.27
2022-10-04T22:36:50.606Z,12.40
2022-10-04T22:39:21.414Z,12.77
2022-10-04T22:41:57.473Z,20.33
2022-10-04T22:44:38.844Z,14.85
2022-10-04T22:47:18.224Z,13.65
2022-10-04T22:49:52.132Z,13.20
2022-10-04T22:52:22.353Z,18.27
2022-10-04T22:54:51.430Z,15.10
2022-10-04T22:57:20.113Z,13.50
2022-10-04T22:59:51.861Z,13.95
2022-10-04T23:02:24.805Z,12.05
2022-10-04T23:04:54.383Z,13.55
2022-10-04T23:07:22.314Z,14.73
2022-10-04T23:09:49.492Z,12.07
2022-10-04T23:12:16.867Z,10.98
2022-10-04T23:14:44.280Z,13.88
2022-10-04T23:17:39.260Z,11.20
2022-10-04T23:20:19.656Z,11.50
2022-10-04T23:22:51.080Z,11.63
2022-10-04T23:25:26.079Z,10.65
2022-10-04T23:27:58.787Z,9.70
2022-10-04T23:30:29.059Z,11.40
2022-10-04T23:32:59.598Z,13.05
2022-10-04T23:35:32.791Z,9.68
2022-10-04T23:38:02.456Z,11.60
2022-10-04T23:40:31.530Z,13.35
2022-10-04T23:43:01.785Z,10.23
2022-10-04T23:45:32.230Z,11.50
2022-10-04T23:48:03.038Z,10.70
2022-10-04T23:50:37.521Z,12.65
2022-10-04T23:53:22.940Z,12.88
2022-10-04T23:55:50.640Z,13.98
2022-10-04T23:58:24.462Z,11.82
